Hovedside
METAR-TAF:

METAR-TAF

Lufthavner :

Oljeplattform

D15-fa-1, Nederland

breddegrad: 54-19-32N, lengdegrad: 2-56-09E, høyde over havet: 36 m

Gjeldene værobservasjon

Denne rapporten ble laget for 36 minutter siden, klokken 17:25 UTC
Vind 16 kt fra Vest, skiftende mellom Sør og Vest-nordvest
Temperatur 6°C
Luftfuktighet 70%
Trykk 991 hPa
Sikt 10 km eller mer

METAR: EHDV 251725Z AUTO 26016KT 170V300 9999 FEW020/// SCT032/// BKN039/// 06/01 Q0991

Tid: 19:01 (18:01 UTC)


TAF: fraværende

Værobservasjoner og værvarsel for over 4000 flyplasser (METAR- og TAF-rapporter).

Tilgjengelige stasjoner er representert av de røde og gule prikkene på kartet.

Hold musepekeren over prikken for å se navnet på stasjonen.

Klikk så for å se værobservasjoner og -varsler.

For å forandre kartet kan du klikke på den grønne knappen med svart kryss for å zoome inn, på den grønne knappen med strek for å zoome ut, eller på de grønne pilene for å se tilstøtende kart.


METAR-TAF: